createdAt,value
2023-02-06T00:02:18.779Z,8.53
2023-02-06T00:04:47.104Z,7.57
2023-02-06T00:07:15.225Z,7.70
2023-02-06T00:09:43.342Z,6.83
2023-02-06T00:12:13.839Z,7.93
2023-02-06T00:14:43.427Z,6.27
2023-02-06T00:17:11.963Z,7.60
2023-02-06T00:19:40.130Z,6.77
2023-02-06T00:22:09.063Z,6.97
2023-02-06T00:24:37.255Z,7.13
2023-02-06T00:27:05.480Z,7.27
2023-02-06T00:29:33.813Z,6.53
2023-02-06T00:32:03.361Z,7.70
2023-02-06T00:34:31.667Z,6.73
2023-02-06T00:37:01.107Z,5.80
2023-02-06T00:39:29.490Z,8.20
2023-02-06T00:41:57.625Z,7.57
2023-02-06T00:44:25.760Z,7.27
2023-02-06T00:46:54.025Z,8.30
2023-02-06T00:49:24.290Z,6.10
2023-02-06T00:51:52.534Z,6.87
2023-02-06T00:54:21.360Z,6.27
2023-02-06T00:56:49.564Z,7.57
2023-02-06T00:59:17.948Z,7.20
2023-02-06T01:01:46.169Z,6.80
2023-02-06T01:04:14.467Z,7.40
2023-02-06T01:06:43.913Z,6.30
2023-02-06T01:09:12.151Z,7.33
2023-02-06T01:11:40.343Z,7.10
2023-02-06T01:14:08.738Z,6.93
2023-02-06T01:16:37.593Z,6.57
2023-02-06T01:19:05.748Z,8.00
2023-02-06T01:21:34.226Z,10.60
2023-02-06T01:24:04.352Z,14.23
2023-02-06T01:26:32.587Z,14.67
2023-02-06T01:29:00.731Z,14.07
2023-02-06T01:31:30.576Z,11.30
2023-02-06T01:34:00.413Z,11.90
2023-02-06T01:36:29.003Z,10.60
2023-02-06T01:38:58.192Z,8.50
2023-02-06T01:41:27.785Z,8.10
2023-02-06T01:44:22.773Z,7.50
2023-02-06T01:46:53.030Z,7.17
2023-02-06T01:49:25.114Z,6.90
2023-02-06T01:51:57.548Z,5.70
2023-02-06T01:54:26.003Z,5.33
2023-02-06T01:57:00.217Z,6.40
2023-02-06T01:59:29.659Z,6.00
2023-02-06T02:01:58.222Z,5.53
2023-02-06T02:04:29.170Z,5.63
2023-02-06T02:07:05.416Z,5.67
2023-02-06T02:09:34.443Z,5.80
2023-02-06T02:12:04.453Z,5.73
2023-02-06T02:14:32.718Z,5.70
2023-02-06T02:17:17.196Z,4.97
2023-02-06T02:20:33.909Z,5.40
2023-02-06T02:23:24.987Z,6.40
2023-02-06T02:26:28.928Z,5.43
2023-02-06T02:29:34.556Z,6.00
2023-02-06T02:32:50.810Z,6.40
2023-02-06T02:35:39.366Z,5.60
2023-02-06T02:38:19.994Z,6.87
2023-02-06T02:40:55.882Z,6.27
2023-02-06T02:43:32.564Z,5.23
2023-02-06T02:46:05.931Z,5.47
2023-02-06T02:48:39.640Z,5.53
2023-02-06T02:51:11.090Z,6.27
2023-02-06T02:53:39.791Z,6.17
2023-02-06T02:56:17.343Z,5.40
2023-02-06T02:58:47.080Z,6.07
2023-02-06T03:01:21.582Z,6.27
2023-02-06T03:03:52.107Z,5.83
2023-02-06T03:06:52.417Z,5.97
2023-02-06T03:09:31.026Z,6.13
2023-02-06T03:12:07.854Z,5.90
2023-02-06T03:14:43.538Z,7.00
2023-02-06T03:17:18.431Z,5.63
2023-02-06T03:19:51.185Z,5.67
2023-02-06T03:22:22.688Z,6.30
2023-02-06T03:24:53.408Z,5.90
2023-02-06T03:27:26.538Z,6.50
2023-02-06T03:29:59.006Z,6.10
2023-02-06T03:32:33.963Z,5.50
2023-02-06T03:35:07.891Z,6.67
2023-02-06T03:37:39.568Z,7.17
2023-02-06T03:40:10.272Z,4.90
2023-02-06T03:42:46.262Z,5.70
2023-02-06T03:45:20.188Z,5.23
2023-02-06T03:47:50.377Z,5.07
2023-02-06T03:50:19.282Z,5.47
2023-02-06T03:52:52.276Z,6.13
2023-02-06T03:55:24.909Z,5.97
2023-02-06T03:57:56.414Z,5.77
2023-02-06T04:00:28.860Z,6.17
2023-02-06T04:02:58.788Z,6.33
2023-02-06T04:05:30.214Z,5.17
2023-02-06T04:08:00.584Z,6.47
2023-02-06T04:10:29.259Z,5.23
2023-02-06T04:12:58.401Z,6.00
2023-02-06T04:15:27.289Z,6.10
2023-02-06T04:18:01.261Z,6.20
2023-02-06T04:20:30.885Z,5.80
2023-02-06T04:23:01.222Z,6.47
2023-02-06T04:25:30.402Z,6.50
2023-02-06T04:27:59.235Z,5.97
2023-02-06T04:30:27.934Z,5.70
2023-02-06T04:32:58.901Z,5.57
2023-02-06T04:35:33.597Z,6.60
2023-02-06T04:38:08.255Z,6.10
2023-02-06T04:40:39.990Z,5.57
2023-02-06T04:43:12.286Z,6.00
2023-02-06T04:45:47.864Z,7.73
2023-02-06T04:48:28.021Z,5.57
2023-02-06T04:50:58.519Z,5.93
2023-02-06T04:53:33.839Z,5.73
2023-02-06T04:56:08.654Z,6.80
2023-02-06T04:58:43.500Z,5.60
2023-02-06T05:01:19.639Z,6.10
2023-02-06T05:03:49.887Z,6.10
2023-02-06T05:06:21.549Z,5.30
2023-02-06T05:08:55.892Z,6.60
2023-02-06T05:11:27.468Z,7.20
2023-02-06T05:13:59.277Z,6.80
2023-02-06T05:16:38.086Z,6.10
2023-02-06T05:19:09.835Z,6.50
2023-02-06T05:21:45.327Z,6.40
2023-02-06T05:24:24.245Z,21.70
2023-02-06T05:26:58.100Z,101.47
2023-02-06T05:29:34.449Z,21.07
2023-02-06T05:32:09.561Z,21.70
2023-02-06T05:34:44.912Z,14.30
2023-02-06T05:37:18.642Z,12.03
2023-02-06T05:39:54.853Z,9.37
2023-02-06T05:42:25.932Z,9.27
2023-02-06T05:45:16.373Z,7.33
2023-02-06T05:47:54.968Z,7.77
2023-02-06T05:50:28.837Z,8.57
2023-02-06T05:53:03.176Z,10.17
2023-02-06T05:55:39.221Z,8.63
2023-02-06T05:58:13.490Z,8.23
2023-02-06T06:00:44.957Z,8.80
2023-02-06T06:03:14.146Z,8.63
2023-02-06T06:05:44.476Z,8.60
2023-02-06T06:08:15.046Z,9.23
2023-02-06T06:10:46.485Z,8.17
2023-02-06T06:13:20.331Z,7.60
2023-02-06T06:15:56.002Z,9.50
2023-02-06T06:18:33.509Z,9.53
2023-02-06T06:21:03.325Z,8.00
2023-02-06T06:23:48.649Z,7.10
2023-02-06T06:26:24.096Z,6.93
2023-02-06T06:28:54.497Z,6.40
2023-02-06T06:31:24.617Z,7.17
2023-02-06T06:33:56.112Z,6.93
2023-02-06T06:36:28.281Z,6.30
2023-02-06T06:38:57.377Z,6.43
2023-02-06T06:41:33.746Z,6.70
2023-02-06T06:44:07.747Z,6.77
2023-02-06T06:46:37.346Z,5.93
2023-02-06T06:49:06.754Z,6.30
2023-02-06T06:51:36.558Z,5.90
2023-02-06T06:54:06.102Z,6.67
2023-02-06T06:56:37.272Z,7.33
2023-02-06T06:59:06.398Z,7.37
2023-02-06T07:01:38.228Z,5.77
2023-02-06T07:04:07.222Z,5.53
2023-02-06T07:06:36.287Z,5.67
2023-02-06T07:09:05.061Z,5.20
2023-02-06T07:11:43.005Z,5.03
2023-02-06T07:14:13.607Z,5.70
2023-02-06T07:16:42.695Z,47.33
2023-02-06T07:19:11.700Z,25.30
2023-02-06T07:21:40.464Z,9.93
2023-02-06T07:24:11.063Z,8.60
2023-02-06T07:26:41.837Z,6.97
2023-02-06T07:29:12.740Z,6.37
2023-02-06T07:31:42.106Z,6.40
2023-02-06T07:34:14.093Z,6.10
2023-02-06T07:36:42.909Z,6.10
2023-02-06T07:39:11.883Z,6.40
2023-02-06T07:41:40.852Z,5.50
2023-02-06T07:44:12.746Z,5.97
2023-02-06T07:46:47.974Z,5.20
2023-02-06T07:49:19.124Z,17.00
2023-02-06T07:51:53.437Z,12.03
2023-02-06T07:54:22.319Z,7.20
2023-02-06T07:56:51.150Z,5.67
2023-02-06T07:59:23.661Z,4.70
2023-02-06T08:01:52.692Z,5.03
2023-02-06T08:04:21.672Z,4.93
2023-02-06T08:06:50.503Z,4.57
2023-02-06T08:09:19.325Z,4.77
2023-02-06T08:11:51.343Z,4.50
2023-02-06T08:14:21.822Z,4.40
2023-02-06T08:16:51.750Z,4.17
2023-02-06T08:19:21.065Z,4.63
2023-02-06T08:21:53.439Z,4.60
2023-02-06T08:24:27.295Z,5.10
2023-02-06T08:27:01.077Z,4.50
2023-02-06T08:29:31.680Z,4.80
2023-02-06T08:32:02.096Z,5.23
2023-02-06T08:34:30.994Z,37.13
2023-02-06T08:36:59.975Z,14.30
2023-02-06T08:39:28.913Z,9.43
2023-02-06T08:41:57.984Z,6.73
2023-02-06T08:44:31.185Z,6.70
2023-02-06T08:47:09.968Z,5.67
2023-02-06T08:49:39.651Z,5.73
2023-02-06T08:52:08.807Z,6.20
2023-02-06T08:54:38.961Z,6.30
2023-02-06T08:57:08.881Z,6.50
2023-02-06T08:59:40.033Z,6.70
2023-02-06T09:02:10.916Z,6.27
2023-02-06T09:04:39.985Z,5.93
2023-02-06T09:07:08.775Z,6.23
2023-02-06T09:09:43.732Z,6.37
2023-02-06T09:12:13.303Z,6.63
2023-02-06T09:14:44.645Z,6.27
2023-02-06T09:17:13.731Z,5.03
2023-02-06T09:19:43.285Z,5.53
2023-02-06T09:22:12.541Z,5.00
2023-02-06T09:24:44.356Z,6.57
2023-02-06T09:27:13.317Z,6.97
2023-02-06T09:29:45.124Z,6.40
2023-02-06T09:32:14.139Z,6.30
2023-02-06T09:34:47.653Z,13.77
2023-02-06T09:37:17.679Z,23.63
2023-02-06T09:39:47.922Z,16.53
2023-02-06T09:42:23.464Z,10.20
2023-02-06T09:45:02.167Z,8.13
2023-02-06T09:47:37.096Z,7.37
2023-02-06T09:50:18.845Z,7.23
2023-02-06T09:53:01.055Z,8.37
2023-02-06T09:55:38.409Z,7.60
2023-02-06T09:58:22.775Z,8.10
2023-02-06T10:01:02.810Z,8.73
2023-02-06T10:03:55.337Z,10.77
2023-02-06T10:06:28.449Z,12.90
2023-02-06T10:09:03.413Z,15.00
2023-02-06T10:11:41.738Z,16.00
2023-02-06T10:14:19.639Z,17.10
2023-02-06T10:17:03.687Z,16.80
2023-02-06T10:19:44.174Z,17.80
2023-02-06T10:22:24.497Z,18.03
2023-02-06T10:25:04.737Z,18.50
2023-02-06T10:27:36.740Z,19.10
2023-02-06T10:30:06.541Z,20.03
2023-02-06T10:32:49.776Z,20.53
2023-02-06T10:35:34.006Z,20.30
2023-02-06T10:38:23.601Z,25.47
2023-02-06T10:40:57.082Z,23.50
2023-02-06T10:43:37.477Z,41.27
2023-02-06T10:46:30.408Z,49.30
2023-02-06T10:49:09.349Z,35.90
2023-02-06T10:51:45.196Z,28.40
2023-02-06T10:54:20.340Z,25.80
2023-02-06T10:56:50.671Z,27.90
2023-02-06T10:59:28.542Z,24.77
2023-02-06T11:02:19.331Z,22.40
2023-02-06T11:04:57.487Z,23.07
2023-02-06T11:07:31.217Z,22.97
2023-02-06T11:10:01.036Z,22.60
2023-02-06T11:12:38.299Z,21.77
2023-02-06T11:15:22.567Z,22.53
2023-02-06T11:17:54.519Z,24.10
2023-02-06T11:20:30.611Z,23.07
2023-02-06T11:23:20.952Z,24.30
2023-02-06T11:25:59.508Z,26.00
2023-02-06T11:28:29.796Z,26.90
2023-02-06T11:31:03.577Z,25.50
2023-02-06T11:33:49.941Z,25.97
2023-02-06T11:36:28.312Z,27.30
2023-02-06T11:39:00.244Z,28.00
2023-02-06T11:41:31.877Z,31.77
2023-02-06T11:44:09.248Z,27.73
2023-02-06T11:46:38.989Z,27.47
2023-02-06T11:49:24.855Z,29.70
2023-02-06T11:51:57.391Z,30.47
2023-02-06T11:54:29.101Z,31.17
2023-02-06T11:57:02.271Z,30.40
2023-02-06T11:59:34.550Z,28.30
2023-02-06T12:02:07.260Z,44.17
2023-02-06T12:04:40.146Z,36.30
2023-02-06T12:07:19.477Z,30.17
2023-02-06T12:09:47.931Z,26.57
2023-02-06T12:12:24.140Z,22.57
2023-02-06T12:15:23.581Z,23.13
2023-02-06T12:18:06.925Z,21.33
2023-02-06T12:20:57.396Z,21.57
2023-02-06T12:23:46.896Z,22.33
2023-02-06T12:26:21.454Z,20.17
2023-02-06T12:28:59.798Z,20.13
2023-02-06T12:31:40.070Z,19.80
2023-02-06T12:34:44.634Z,19.33
2023-02-06T12:37:30.609Z,19.43
2023-02-06T12:40:35.449Z,19.43
2023-02-06T12:43:14.353Z,19.27
2023-02-06T12:45:58.325Z,21.50
2023-02-06T12:48:48.799Z,19.93
2023-02-06T12:51:56.364Z,19.63
2023-02-06T12:54:32.425Z,23.63
2023-02-06T12:57:15.293Z,22.30
2023-02-06T13:00:14.243Z,23.47
2023-02-06T13:03:11.532Z,23.03
2023-02-06T13:06:05.945Z,23.47
2023-02-06T13:08:48.213Z,23.43
2023-02-06T13:11:36.153Z,20.47
2023-02-06T13:14:19.356Z,19.37
2023-02-06T13:16:52.987Z,18.27
2023-02-06T13:19:25.379Z,17.67
2023-02-06T13:21:55.064Z,19.03
2023-02-06T13:24:23.387Z,22.07
2023-02-06T13:27:19.604Z,22.07
2023-02-06T13:29:51.571Z,21.27
2023-02-06T13:32:53.368Z,34.27
2023-02-06T13:35:25.988Z,24.10
2023-02-06T13:38:25.600Z,23.83
2023-02-06T13:41:18.979Z,24.10
2023-02-06T13:43:52.653Z,22.90
2023-02-06T13:46:24.711Z,20.57
2023-02-06T13:49:26.346Z,21.57
2023-02-06T13:52:04.358Z,19.70
2023-02-06T13:55:00.445Z,21.53
2023-02-06T13:57:40.455Z,24.43
2023-02-06T14:00:16.471Z,23.63
2023-02-06T14:02:48.720Z,23.87
2023-02-06T14:05:21.553Z,25.33
2023-02-06T14:08:06.204Z,24.47
2023-02-06T14:10:58.499Z,23.80
2023-02-06T14:13:42.585Z,22.57
2023-02-06T14:16:27.393Z,23.07
2023-02-06T14:19:01.563Z,21.00
2023-02-06T14:21:40.448Z,22.67
2023-02-06T14:24:27.607Z,19.93
2023-02-06T14:27:08.041Z,18.23
2023-02-06T14:29:45.607Z,16.47
2023-02-06T14:32:28.995Z,16.00
2023-02-06T14:35:19.600Z,15.30
2023-02-06T14:38:03.255Z,13.70
2023-02-06T14:40:36.464Z,15.03
2023-02-06T14:43:08.660Z,14.53
2023-02-06T14:45:42.492Z,15.90
2023-02-06T14:48:22.113Z,16.37
2023-02-06T14:50:56.448Z,13.83
2023-02-06T14:53:29.011Z,14.10
2023-02-06T14:56:09.071Z,14.37
2023-02-06T14:58:37.486Z,15.30
2023-02-06T15:01:21.988Z,14.47
2023-02-06T15:03:54.674Z,15.17
2023-02-06T15:06:36.522Z,16.67
2023-02-06T15:09:05.750Z,15.70
2023-02-06T15:11:34.776Z,23.37
2023-02-06T15:14:05.612Z,22.87
2023-02-06T15:16:47.187Z,13.47
2023-02-06T15:19:20.916Z,11.60
2023-02-06T15:21:51.188Z,12.50
2023-02-06T15:24:41.528Z,10.87
2023-02-06T15:27:16.690Z,12.60
2023-02-06T15:29:49.662Z,13.03
2023-02-06T15:32:27.831Z,13.20
2023-02-06T15:34:56.675Z,12.53
2023-02-06T15:37:29.241Z,13.30
2023-02-06T15:40:05.739Z,12.30
2023-02-06T15:42:34.506Z,12.10
2023-02-06T15:45:02.984Z,10.70
2023-02-06T15:47:32.082Z,11.37
2023-02-06T15:50:01.168Z,11.93
2023-02-06T15:52:37.054Z,11.97
2023-02-06T15:55:06.004Z,12.60
2023-02-06T15:57:36.639Z,11.30
2023-02-06T16:00:09.709Z,10.80
2023-02-06T16:02:41.750Z,13.33
2023-02-06T16:05:19.967Z,14.70
2023-02-06T16:07:51.375Z,19.17
2023-02-06T16:10:24.478Z,21.40
2023-02-06T16:12:53.434Z,16.03
2023-02-06T16:15:30.194Z,14.07
2023-02-06T16:18:00.025Z,12.13
2023-02-06T16:20:36.894Z,12.20
2023-02-06T16:23:24.390Z,12.07
2023-02-06T16:26:02.952Z,13.57
2023-02-06T16:28:31.696Z,12.87
2023-02-06T16:31:02.056Z,13.37
2023-02-06T16:33:35.810Z,11.37
2023-02-06T16:36:04.148Z,11.73
2023-02-06T16:38:34.152Z,12.60
2023-02-06T16:41:02.553Z,12.50
2023-02-06T16:43:31.821Z,14.07
2023-02-06T16:46:02.328Z,12.90
2023-02-06T16:48:30.898Z,12.10
2023-02-06T16:51:00.722Z,10.83
2023-02-06T16:53:29.880Z,10.23
2023-02-06T16:55:59.620Z,9.30
2023-02-06T16:58:30.348Z,10.40
2023-02-06T17:00:59.649Z,9.63
2023-02-06T17:03:27.931Z,10.00
2023-02-06T17:05:56.202Z,10.47
2023-02-06T17:08:25.704Z,10.30
2023-02-06T17:10:54.082Z,10.13
2023-02-06T17:13:25.377Z,10.57
2023-02-06T17:15:54.261Z,9.50
2023-02-06T17:18:24.355Z,9.43
2023-02-06T17:20:56.169Z,10.00
2023-02-06T17:23:24.864Z,8.33
2023-02-06T17:25:53.182Z,9.37
2023-02-06T17:28:25.126Z,8.77
2023-02-06T17:30:53.620Z,10.27
2023-02-06T17:33:21.982Z,11.00
2023-02-06T17:35:50.178Z,14.10
2023-02-06T17:38:18.369Z,13.77
2023-02-06T17:40:46.790Z,12.43
2023-02-06T17:43:14.969Z,11.33
2023-02-06T17:45:44.508Z,11.17
2023-02-06T17:48:12.821Z,10.70
2023-02-06T17:50:42.203Z,9.93
2023-02-06T17:53:13.851Z,10.80
2023-02-06T17:55:42.543Z,10.80
2023-02-06T17:58:10.774Z,9.57
2023-02-06T18:00:39.290Z,9.87
2023-02-06T18:03:09.653Z,9.10
2023-02-06T18:05:39.126Z,8.60
2023-02-06T18:08:07.411Z,9.50
2023-02-06T18:10:35.936Z,9.17
2023-02-06T18:13:04.655Z,8.90
2023-02-06T18:15:33.148Z,8.37
2023-02-06T18:18:01.561Z,9.20
2023-02-06T18:20:31.403Z,10.07
2023-02-06T18:22:59.634Z,10.30
2023-02-06T18:25:27.871Z,10.60
2023-02-06T18:27:56.137Z,15.00
2023-02-06T18:30:24.485Z,12.47
2023-02-06T18:32:52.672Z,13.50
2023-02-06T18:35:24.420Z,13.70
2023-02-06T18:37:55.396Z,19.27
2023-02-06T18:40:23.704Z,13.77
2023-02-06T18:42:54.491Z,12.20
2023-02-06T18:45:25.154Z,11.80
2023-02-06T18:47:53.640Z,11.03
2023-02-06T18:50:22.451Z,10.47
2023-02-06T18:52:51.308Z,10.03
2023-02-06T18:55:21.298Z,10.40
2023-02-06T18:57:50.097Z,10.10
2023-02-06T19:00:20.864Z,9.80
2023-02-06T19:02:49.976Z,10.17
2023-02-06T19:05:18.408Z,9.63
2023-02-06T19:07:50.629Z,9.43
2023-02-06T19:10:21.094Z,9.83
2023-02-06T19:12:49.593Z,9.47
2023-02-06T19:15:18.127Z,9.30
2023-02-06T19:17:46.566Z,10.03
2023-02-06T19:20:16.723Z,9.70
2023-02-06T19:22:45.008Z,9.40
2023-02-06T19:25:14.705Z,9.17
2023-02-06T19:27:44.512Z,9.37
2023-02-06T19:30:14.122Z,9.23
2023-02-06T19:32:43.461Z,10.93
2023-02-06T19:35:12.076Z,9.70
2023-02-06T19:37:40.327Z,9.87
2023-02-06T19:40:09.192Z,9.73
2023-02-06T19:42:37.491Z,9.77
2023-02-06T19:45:07.435Z,9.30
2023-02-06T19:47:36.239Z,8.67
2023-02-06T19:50:04.910Z,9.20
2023-02-06T19:52:35.255Z,9.10
2023-02-06T19:55:03.900Z,9.20
2023-02-06T19:57:32.204Z,9.73
2023-02-06T20:00:00.591Z,9.70
2023-02-06T20:02:30.433Z,10.57
2023-02-06T20:05:00.378Z,9.50
2023-02-06T20:07:30.743Z,9.40
2023-02-06T20:09:59.001Z,8.70
2023-02-06T20:12:27.243Z,8.37
2023-02-06T20:14:55.727Z,9.37
2023-02-06T20:17:25.172Z,8.13
2023-02-06T20:19:55.118Z,8.83
2023-02-06T20:22:23.383Z,8.93
2023-02-06T20:24:52.208Z,10.13
2023-02-06T20:27:20.557Z,8.40
2023-02-06T20:29:50.206Z,9.80
2023-02-06T20:32:19.472Z,8.53
2023-02-06T20:34:47.865Z,8.03
2023-02-06T20:37:37.364Z,8.40
2023-02-06T20:40:08.228Z,9.10
2023-02-06T20:42:44.720Z,7.40
2023-02-06T20:45:13.684Z,8.33
2023-02-06T20:47:45.701Z,8.60
2023-02-06T20:50:14.539Z,9.40
2023-02-06T20:52:46.849Z,8.53
2023-02-06T20:55:17.062Z,8.60
2023-02-06T20:57:48.333Z,9.10
2023-02-06T21:00:21.573Z,8.63
2023-02-06T21:02:51.428Z,9.87
2023-02-06T21:05:25.840Z,9.70
2023-02-06T21:07:58.880Z,10.00
2023-02-06T21:10:30.477Z,9.37
2023-02-06T21:12:58.760Z,8.57
2023-02-06T21:15:27.067Z,9.43
2023-02-06T21:17:55.500Z,10.23
2023-02-06T21:20:23.778Z,9.27
2023-02-06T21:22:52.907Z,9.70
2023-02-06T21:25:22.636Z,10.30
2023-02-06T21:27:50.837Z,8.87
2023-02-06T21:30:19.140Z,10.43
2023-02-06T21:32:47.379Z,9.20
2023-02-06T21:35:15.493Z,8.90
2023-02-06T21:37:43.881Z,9.47
2023-02-06T21:40:13.082Z,10.00
2023-02-06T21:42:42.864Z,9.57
2023-02-06T21:45:11.233Z,10.10
2023-02-06T21:47:41.041Z,9.87
2023-02-06T21:50:09.814Z,9.87
2023-02-06T21:52:38.713Z,9.90
2023-02-06T21:55:07.739Z,9.30
2023-02-06T21:57:36.087Z,9.33
2023-02-06T22:00:06.601Z,9.73
2023-02-06T22:02:40.891Z,9.33
2023-02-06T22:05:09.620Z,9.83
2023-02-06T22:07:38.811Z,9.57
2023-02-06T22:10:08.636Z,9.70
2023-02-06T22:12:36.862Z,9.90
2023-02-06T22:15:07.810Z,9.43
2023-02-06T22:17:36.049Z,9.73
2023-02-06T22:20:04.423Z,8.53
2023-02-06T22:22:32.747Z,8.50
2023-02-06T22:25:01.005Z,9.47
2023-02-06T22:27:29.188Z,8.30
2023-02-06T22:29:57.641Z,9.43
2023-02-06T22:32:27.230Z,8.43
2023-02-06T22:34:58.931Z,9.73
2023-02-06T22:37:27.577Z,9.17
2023-02-06T22:39:57.534Z,8.47
2023-02-06T22:42:25.797Z,9.77
2023-02-06T22:44:54.074Z,10.70
2023-02-06T22:47:22.214Z,9.77
2023-02-06T22:49:53.451Z,10.70
2023-02-06T22:52:38.861Z,10.80
2023-02-06T22:55:09.454Z,10.10
2023-02-06T22:57:37.746Z,11.03
2023-02-06T23:00:11.629Z,10.20
2023-02-06T23:02:40.692Z,11.90
2023-02-06T23:05:10.602Z,11.90
2023-02-06T23:07:38.803Z,12.57
2023-02-06T23:10:07.510Z,11.73
2023-02-06T23:12:37.228Z,12.10
2023-02-06T23:15:06.023Z,11.73
2023-02-06T23:17:34.258Z,12.50
2023-02-06T23:20:02.530Z,12.60
2023-02-06T23:22:32.147Z,12.50
2023-02-06T23:25:00.630Z,12.23
2023-02-06T23:27:29.324Z,12.20
2023-02-06T23:29:57.964Z,11.50
2023-02-06T23:32:26.157Z,10.73
2023-02-06T23:34:54.332Z,12.13
2023-02-06T23:37:22.495Z,12.40
2023-02-06T23:39:52.100Z,10.67
2023-02-06T23:42:20.301Z,12.13
2023-02-06T23:44:48.497Z,12.27
2023-02-06T23:47:17.169Z,11.57
2023-02-06T23:49:45.338Z,11.20
2023-02-06T23:52:13.992Z,10.67
2023-02-06T23:54:42.286Z,10.97
2023-02-06T23:57:11.896Z,10.67
2023-02-06T23:59:40.131Z,10.50
